sensor_id;sensor_type;location;lat;lon;timestamp;temperature;humidity
10583;DHT22;33679;51.218;6.786;2023-01-06T00:00:49;14.90;99.90
10583;DHT22;33679;51.218;6.786;2023-01-06T00:03:23;14.90;99.90
10583;DHT22;33679;51.218;6.786;2023-01-06T00:05:57;15.00;99.90
10583;DHT22;33679;51.218;6.786;2023-01-06T00:08:32;15.00;99.90
10583;DHT22;33679;51.218;6.786;2023-01-06T00:11:09;14.90;99.90
10583;DHT22;33679;51.218;6.786;2023-01-06T00:13:41;14.90;99.90
10583;DHT22;33679;51.218;6.786;2023-01-06T00:16:15;14.90;99.90
10583;DHT22;33679;51.218;6.786;2023-01-06T00:18:53;14.80;99.90
10583;DHT22;33679;51.218;6.786;2023-01-06T00:21:26;14.80;99.90
10583;DHT22;33679;51.218;6.786;2023-01-06T00:24:02;14.80;99.90
10583;DHT22;33679;51.218;6.786;2023-01-06T00:26:36;14.80;99.90
10583;DHT22;33679;51.218;6.786;2023-01-06T00:29:09;14.80;99.90
10583;DHT22;33679;51.218;6.786;2023-01-06T00:31:44;14.90;99.90
10583;DHT22;33679;51.218;6.786;2023-01-06T00:34:18;14.80;99.90
10583;DHT22;33679;51.218;6.786;2023-01-06T00:36:51;14.80;99.90
10583;DHT22;33679;51.218;6.786;2023-01-06T00:39:24;14.80;99.90
10583;DHT22;33679;51.218;6.786;2023-01-06T00:41:57;14.80;99.90
10583;DHT22;33679;51.218;6.786;2023-01-06T00:44:36;14.80;99.90
10583;DHT22;33679;51.218;6.786;2023-01-06T00:47:13;14.80;99.90
10583;DHT22;33679;51.218;6.786;2023-01-06T00:49:46;14.80;99.90
10583;DHT22;33679;51.218;6.786;2023-01-06T00:52:19;14.90;99.90
10583;DHT22;33679;51.218;6.786;2023-01-06T00:54:51;14.90;99.90
10583;DHT22;33679;51.218;6.786;2023-01-06T00:57:24;14.90;99.90
10583;DHT22;33679;51.218;6.786;2023-01-06T00:59:58;14.90;99.90
10583;DHT22;33679;51.218;6.786;2023-01-06T01:02:30;14.90;99.90
10583;DHT22;33679;51.218;6.786;2023-01-06T01:05:04;14.90;99.90
10583;DHT22;33679;51.218;6.786;2023-01-06T01:07:37;14.90;99.90
10583;DHT22;33679;51.218;6.786;2023-01-06T01:10:11;14.90;99.90
10583;DHT22;33679;51.218;6.786;2023-01-06T01:12:44;14.90;99.90
10583;DHT22;33679;51.218;6.786;2023-01-06T01:15:16;14.90;99.90
10583;DHT22;33679;51.218;6.786;2023-01-06T01:17:49;15.00;99.90
10583;DHT22;33679;51.218;6.786;2023-01-06T01:20:23;15.00;99.90
10583;DHT22;33679;51.218;6.786;2023-01-06T01:22:55;14.90;99.90
10583;DHT22;33679;51.218;6.786;2023-01-06T01:25:28;14.90;99.90
10583;DHT22;33679;51.218;6.786;2023-01-06T01:28:07;15.00;99.90
10583;DHT22;33679;51.218;6.786;2023-01-06T01:30:39;14.90;99.90
10583;DHT22;33679;51.218;6.786;2023-01-06T01:33:11;14.90;99.90
10583;DHT22;33679;51.218;6.786;2023-01-06T01:35:45;14.90;99.90
10583;DHT22;33679;51.218;6.786;2023-01-06T01:38:18;14.90;99.90
10583;DHT22;33679;51.218;6.786;2023-01-06T01:40:51;14.90;99.90
10583;DHT22;33679;51.218;6.786;2023-01-06T01:43:24;14.90;99.90
10583;DHT22;33679;51.218;6.786;2023-01-06T01:45:56;14.90;99.90
10583;DHT22;33679;51.218;6.786;2023-01-06T01:48:31;14.90;99.90
10583;DHT22;33679;51.218;6.786;2023-01-06T01:51:10;14.90;99.90
10583;DHT22;33679;51.218;6.786;2023-01-06T01:53:46;14.90;99.90
10583;DHT22;33679;51.218;6.786;2023-01-06T01:56:24;14.80;99.90
10583;DHT22;33679;51.218;6.786;2023-01-06T01:59:01;14.80;99.90
10583;DHT22;33679;51.218;6.786;2023-01-06T02:01:35;14.80;99.90
10583;DHT22;33679;51.218;6.786;2023-01-06T02:04:08;14.80;99.90
10583;DHT22;33679;51.218;6.786;2023-01-06T02:06:45;14.80;99.90
10583;DHT22;33679;51.218;6.786;2023-01-06T02:09:32;14.80;99.90
10583;DHT22;33679;51.218;6.786;2023-01-06T02:12:06;14.80;99.90
10583;DHT22;33679;51.218;6.786;2023-01-06T02:14:39;14.80;99.90
10583;DHT22;33679;51.218;6.786;2023-01-06T02:17:24;14.80;99.90
10583;DHT22;33679;51.218;6.786;2023-01-06T02:20:25;14.90;99.90
10583;DHT22;33679;51.218;6.786;2023-01-06T02:26:17;14.80;99.90
10583;DHT22;33679;51.218;6.786;2023-01-06T02:32:07;14.80;99.90
10583;DHT22;33679;51.218;6.786;2023-01-06T02:34:53;14.70;99.90
10583;DHT22;33679;51.218;6.786;2023-01-06T02:37:38;14.70;99.90
10583;DHT22;33679;51.218;6.786;2023-01-06T02:40:28;14.70;99.90
10583;DHT22;33679;51.218;6.786;2023-01-06T02:43:13;14.70;99.90
10583;DHT22;33679;51.218;6.786;2023-01-06T02:45:55;14.70;99.90
10583;DHT22;33679;51.218;6.786;2023-01-06T02:48:40;14.70;99.90
10583;DHT22;33679;51.218;6.786;2023-01-06T02:51:17;14.70;99.90
10583;DHT22;33679;51.218;6.786;2023-01-06T02:54:03;14.70;99.90
10583;DHT22;33679;51.218;6.786;2023-01-06T02:56:41;14.70;99.90
10583;DHT22;33679;51.218;6.786;2023-01-06T02:59:19;14.60;99.90
10583;DHT22;33679;51.218;6.786;2023-01-06T03:01:55;14.70;99.90
10583;DHT22;33679;51.218;6.786;2023-01-06T03:04:33;14.70;99.90
10583;DHT22;33679;51.218;6.786;2023-01-06T03:07:07;14.70;99.90
10583;DHT22;33679;51.218;6.786;2023-01-06T03:09:44;14.60;99.90
10583;DHT22;33679;51.218;6.786;2023-01-06T03:12:23;14.50;99.90
10583;DHT22;33679;51.218;6.786;2023-01-06T03:14:58;14.50;99.90
10583;DHT22;33679;51.218;6.786;2023-01-06T03:17:32;14.50;99.90
10583;DHT22;33679;51.218;6.786;2023-01-06T03:20:07;14.50;99.90
10583;DHT22;33679;51.218;6.786;2023-01-06T03:22:40;14.50;99.90
10583;DHT22;33679;51.218;6.786;2023-01-06T03:25:13;14.50;99.90
10583;DHT22;33679;51.218;6.786;2023-01-06T03:27:47;14.50;99.90
10583;DHT22;33679;51.218;6.786;2023-01-06T03:30:20;14.50;99.90
10583;DHT22;33679;51.218;6.786;2023-01-06T03:32:57;14.50;99.90
10583;DHT22;33679;51.218;6.786;2023-01-06T03:35:44;14.40;99.90
10583;DHT22;33679;51.218;6.786;2023-01-06T03:38:24;14.50;99.90
10583;DHT22;33679;51.218;6.786;2023-01-06T03:41:07;14.50;99.90
10583;DHT22;33679;51.218;6.786;2023-01-06T03:43:48;14.50;99.90
10583;DHT22;33679;51.218;6.786;2023-01-06T03:46:26;14.40;99.90
10583;DHT22;33679;51.218;6.786;2023-01-06T03:49:06;14.50;99.90
10583;DHT22;33679;51.218;6.786;2023-01-06T03:51:47;14.50;99.90
10583;DHT22;33679;51.218;6.786;2023-01-06T03:54:32;14.50;99.90
10583;DHT22;33679;51.218;6.786;2023-01-06T03:57:09;14.50;99.90
10583;DHT22;33679;51.218;6.786;2023-01-06T03:59:48;14.50;99.90
10583;DHT22;33679;51.218;6.786;2023-01-06T04:02:21;14.60;99.90
10583;DHT22;33679;51.218;6.786;2023-01-06T04:05:03;14.60;99.90
10583;DHT22;33679;51.218;6.786;2023-01-06T04:07:39;14.60;99.90
10583;DHT22;33679;51.218;6.786;2023-01-06T04:10:14;14.60;99.90
10583;DHT22;33679;51.218;6.786;2023-01-06T04:12:47;14.60;99.90
10583;DHT22;33679;51.218;6.786;2023-01-06T04:15:26;14.60;99.90
10583;DHT22;33679;51.218;6.786;2023-01-06T04:17:59;14.50;99.90
10583;DHT22;33679;51.218;6.786;2023-01-06T04:20:35;14.60;99.90
10583;DHT22;33679;51.218;6.786;2023-01-06T04:23:17;14.60;99.90
10583;DHT22;33679;51.218;6.786;2023-01-06T04:25:50;14.60;99.90
10583;DHT22;33679;51.218;6.786;2023-01-06T04:28:38;14.60;99.90
10583;DHT22;33679;51.218;6.786;2023-01-06T04:31:11;14.60;99.90
10583;DHT22;33679;51.218;6.786;2023-01-06T04:33:45;14.50;99.90
10583;DHT22;33679;51.218;6.786;2023-01-06T04:36:18;14.50;99.90
10583;DHT22;33679;51.218;6.786;2023-01-06T04:38:55;14.50;99.90
10583;DHT22;33679;51.218;6.786;2023-01-06T04:41:28;14.50;99.90
10583;DHT22;33679;51.218;6.786;2023-01-06T04:44:01;14.40;99.90
10583;DHT22;33679;51.218;6.786;2023-01-06T04:46:34;14.40;99.90
10583;DHT22;33679;51.218;6.786;2023-01-06T04:49:06;14.30;99.90
10583;DHT22;33679;51.218;6.786;2023-01-06T04:51:39;14.40;99.90
10583;DHT22;33679;51.218;6.786;2023-01-06T04:54:12;14.40;99.90
10583;DHT22;33679;51.218;6.786;2023-01-06T04:56:45;14.40;99.90
10583;DHT22;33679;51.218;6.786;2023-01-06T04:59:18;14.40;99.90
10583;DHT22;33679;51.218;6.786;2023-01-06T05:01:50;14.40;99.90
10583;DHT22;33679;51.218;6.786;2023-01-06T05:04:22;14.50;99.90
10583;DHT22;33679;51.218;6.786;2023-01-06T05:06:55;14.40;99.90
10583;DHT22;33679;51.218;6.786;2023-01-06T05:09:28;14.50;99.90
10583;DHT22;33679;51.218;6.786;2023-01-06T05:12:01;14.40;99.90
10583;DHT22;33679;51.218;6.786;2023-01-06T05:14:33;14.40;99.90
10583;DHT22;33679;51.218;6.786;2023-01-06T05:17:06;14.40;99.90
10583;DHT22;33679;51.218;6.786;2023-01-06T05:19:38;14.30;99.90
10583;DHT22;33679;51.218;6.786;2023-01-06T05:22:12;14.30;99.90
10583;DHT22;33679;51.218;6.786;2023-01-06T05:24:46;14.20;99.90
10583;DHT22;33679;51.218;6.786;2023-01-06T05:27:20;14.30;99.90
10583;DHT22;33679;51.218;6.786;2023-01-06T05:29:53;14.20;99.90
10583;DHT22;33679;51.218;6.786;2023-01-06T05:32:26;14.20;99.90
10583;DHT22;33679;51.218;6.786;2023-01-06T05:35:00;14.30;99.90
10583;DHT22;33679;51.218;6.786;2023-01-06T05:37:35;14.30;99.90
10583;DHT22;33679;51.218;6.786;2023-01-06T05:40:27;14.30;99.90
10583;DHT22;33679;51.218;6.786;2023-01-06T05:43:18;14.40;99.90
10583;DHT22;33679;51.218;6.786;2023-01-06T05:45:45;14.40;99.90
10583;DHT22;33679;51.218;6.786;2023-01-06T05:48:13;14.30;99.90
10583;DHT22;33679;51.218;6.786;2023-01-06T05:50:40;14.30;99.90
10583;DHT22;33679;51.218;6.786;2023-01-06T05:53:07;14.30;99.90
10583;DHT22;33679;51.218;6.786;2023-01-06T05:55:36;14.30;99.90
10583;DHT22;33679;51.218;6.786;2023-01-06T05:58:03;14.30;99.90
10583;DHT22;33679;51.218;6.786;2023-01-06T06:00:31;14.30;99.90
10583;DHT22;33679;51.218;6.786;2023-01-06T06:02:59;14.30;99.90
10583;DHT22;33679;51.218;6.786;2023-01-06T06:05:26;14.30;99.90
10583;DHT22;33679;51.218;6.786;2023-01-06T06:07:53;14.30;99.90
10583;DHT22;33679;51.218;6.786;2023-01-06T06:10:22;14.30;99.90
10583;DHT22;33679;51.218;6.786;2023-01-06T06:12:51;14.20;99.90
10583;DHT22;33679;51.218;6.786;2023-01-06T06:15:18;14.20;99.90
10583;DHT22;33679;51.218;6.786;2023-01-06T06:17:45;14.20;99.90
10583;DHT22;33679;51.218;6.786;2023-01-06T06:20:13;14.20;99.90
10583;DHT22;33679;51.218;6.786;2023-01-06T06:22:42;14.10;99.90
10583;DHT22;33679;51.218;6.786;2023-01-06T06:25:09;14.20;99.90
10583;DHT22;33679;51.218;6.786;2023-01-06T06:27:39;14.10;99.90
10583;DHT22;33679;51.218;6.786;2023-01-06T06:30:09;14.10;99.90
10583;DHT22;33679;51.218;6.786;2023-01-06T06:32:46;14.10;99.90
10583;DHT22;33679;51.218;6.786;2023-01-06T06:35:13;14.10;99.90
10583;DHT22;33679;51.218;6.786;2023-01-06T06:37:41;14.20;99.90
10583;DHT22;33679;51.218;6.786;2023-01-06T06:40:10;14.10;99.90
10583;DHT22;33679;51.218;6.786;2023-01-06T06:42:37;14.10;99.90
10583;DHT22;33679;51.218;6.786;2023-01-06T06:45:05;14.10;99.90
10583;DHT22;33679;51.218;6.786;2023-01-06T06:47:35;14.10;99.90
10583;DHT22;33679;51.218;6.786;2023-01-06T06:50:03;14.20;99.90
10583;DHT22;33679;51.218;6.786;2023-01-06T06:52:30;14.20;99.90
10583;DHT22;33679;51.218;6.786;2023-01-06T06:54:57;14.20;99.90
10583;DHT22;33679;51.218;6.786;2023-01-06T06:57:25;14.20;99.90
10583;DHT22;33679;51.218;6.786;2023-01-06T06:59:52;14.20;99.90
10583;DHT22;33679;51.218;6.786;2023-01-06T07:02:20;14.20;99.90
10583;DHT22;33679;51.218;6.786;2023-01-06T07:04:52;14.30;99.90
10583;DHT22;33679;51.218;6.786;2023-01-06T07:07:19;14.20;99.90
10583;DHT22;33679;51.218;6.786;2023-01-06T07:09:50;14.20;99.90
10583;DHT22;33679;51.218;6.786;2023-01-06T07:12:17;14.20;99.90
10583;DHT22;33679;51.218;6.786;2023-01-06T07:14:45;14.20;99.90
10583;DHT22;33679;51.218;6.786;2023-01-06T07:17:13;14.20;99.90
10583;DHT22;33679;51.218;6.786;2023-01-06T07:19:40;14.20;99.90
10583;DHT22;33679;51.218;6.786;2023-01-06T07:22:09;14.20;99.90
10583;DHT22;33679;51.218;6.786;2023-01-06T07:24:37;14.20;99.90
10583;DHT22;33679;51.218;6.786;2023-01-06T07:27:04;14.20;99.90
10583;DHT22;33679;51.218;6.786;2023-01-06T07:29:32;14.30;99.90
10583;DHT22;33679;51.218;6.786;2023-01-06T07:31:59;14.30;99.90
10583;DHT22;33679;51.218;6.786;2023-01-06T07:34:26;14.40;99.90
10583;DHT22;33679;51.218;6.786;2023-01-06T07:36:53;14.40;99.90
10583;DHT22;33679;51.218;6.786;2023-01-06T07:39:22;14.30;99.90
10583;DHT22;33679;51.218;6.786;2023-01-06T07:41:50;14.30;99.90
10583;DHT22;33679;51.218;6.786;2023-01-06T07:44:18;14.30;99.90
10583;DHT22;33679;51.218;6.786;2023-01-06T07:46:45;14.40;99.90
10583;DHT22;33679;51.218;6.786;2023-01-06T07:49:12;14.40;99.90
10583;DHT22;33679;51.218;6.786;2023-01-06T07:51:40;14.40;99.90
10583;DHT22;33679;51.218;6.786;2023-01-06T07:54:07;14.40;99.90
10583;DHT22;33679;51.218;6.786;2023-01-06T07:56:36;14.40;99.90
10583;DHT22;33679;51.218;6.786;2023-01-06T07:59:04;14.50;99.90
10583;DHT22;33679;51.218;6.786;2023-01-06T08:01:31;14.50;99.90
10583;DHT22;33679;51.218;6.786;2023-01-06T08:03:59;14.50;99.90
10583;DHT22;33679;51.218;6.786;2023-01-06T08:06:29;14.40;99.90
10583;DHT22;33679;51.218;6.786;2023-01-06T08:08:56;14.40;99.90
10583;DHT22;33679;51.218;6.786;2023-01-06T08:11:24;14.40;99.90
10583;DHT22;33679;51.218;6.786;2023-01-06T08:13:55;14.40;99.90
10583;DHT22;33679;51.218;6.786;2023-01-06T08:16:22;14.40;99.90
10583;DHT22;33679;51.218;6.786;2023-01-06T08:18:50;14.40;99.90
10583;DHT22;33679;51.218;6.786;2023-01-06T08:21:19;14.30;99.90
10583;DHT22;33679;51.218;6.786;2023-01-06T08:23:46;14.30;99.90
10583;DHT22;33679;51.218;6.786;2023-01-06T08:26:15;14.30;99.90
10583;DHT22;33679;51.218;6.786;2023-01-06T08:28:43;14.30;99.90
10583;DHT22;33679;51.218;6.786;2023-01-06T08:31:14;14.20;99.90
10583;DHT22;33679;51.218;6.786;2023-01-06T08:33:42;14.20;99.90
10583;DHT22;33679;51.218;6.786;2023-01-06T08:36:13;14.20;99.90
10583;DHT22;33679;51.218;6.786;2023-01-06T08:38:41;14.20;99.90
10583;DHT22;33679;51.218;6.786;2023-01-06T08:41:10;14.30;99.90
10583;DHT22;33679;51.218;6.786;2023-01-06T08:43:38;14.30;99.90
10583;DHT22;33679;51.218;6.786;2023-01-06T08:46:07;14.30;99.90
10583;DHT22;33679;51.218;6.786;2023-01-06T08:48:38;14.30;99.90
10583;DHT22;33679;51.218;6.786;2023-01-06T08:51:08;14.20;99.90
10583;DHT22;33679;51.218;6.786;2023-01-06T08:53:36;14.20;99.90
10583;DHT22;33679;51.218;6.786;2023-01-06T08:56:09;14.20;99.90
10583;DHT22;33679;51.218;6.786;2023-01-06T08:58:37;14.20;99.90
10583;DHT22;33679;51.218;6.786;2023-01-06T09:01:04;14.30;99.90
10583;DHT22;33679;51.218;6.786;2023-01-06T09:03:33;14.30;99.90
10583;DHT22;33679;51.218;6.786;2023-01-06T09:06:01;14.30;99.90
10583;DHT22;33679;51.218;6.786;2023-01-06T09:08:29;14.30;99.90
10583;DHT22;33679;51.218;6.786;2023-01-06T09:10:56;14.30;99.90
10583;DHT22;33679;51.218;6.786;2023-01-06T09:13:23;14.30;99.90
10583;DHT22;33679;51.218;6.786;2023-01-06T09:15:51;14.30;99.90
10583;DHT22;33679;51.218;6.786;2023-01-06T09:18:19;14.30;99.90
10583;DHT22;33679;51.218;6.786;2023-01-06T09:20:46;14.30;99.90
10583;DHT22;33679;51.218;6.786;2023-01-06T09:23:15;14.30;99.90
10583;DHT22;33679;51.218;6.786;2023-01-06T09:25:43;14.20;99.90
10583;DHT22;33679;51.218;6.786;2023-01-06T09:28:10;14.30;99.90
10583;DHT22;33679;51.218;6.786;2023-01-06T09:30:38;14.30;99.90
10583;DHT22;33679;51.218;6.786;2023-01-06T09:33:06;14.30;99.90
10583;DHT22;33679;51.218;6.786;2023-01-06T09:35:33;14.30;99.90
10583;DHT22;33679;51.218;6.786;2023-01-06T09:38:00;14.40;99.90
10583;DHT22;33679;51.218;6.786;2023-01-06T09:40:45;14.30;99.90
10583;DHT22;33679;51.218;6.786;2023-01-06T09:43:25;14.40;99.90
10583;DHT22;33679;51.218;6.786;2023-01-06T09:45:59;14.40;99.90
10583;DHT22;33679;51.218;6.786;2023-01-06T09:48:34;14.40;99.90
10583;DHT22;33679;51.218;6.786;2023-01-06T09:51:04;14.30;99.90
10583;DHT22;33679;51.218;6.786;2023-01-06T09:53:34;14.30;99.90
10583;DHT22;33679;51.218;6.786;2023-01-06T09:56:07;14.20;99.90
10583;DHT22;33679;51.218;6.786;2023-01-06T09:58:39;14.20;99.90
10583;DHT22;33679;51.218;6.786;2023-01-06T10:01:11;14.30;99.90
10583;DHT22;33679;51.218;6.786;2023-01-06T10:03:40;14.40;99.90
10583;DHT22;33679;51.218;6.786;2023-01-06T10:06:23;14.40;99.90
10583;DHT22;33679;51.218;6.786;2023-01-06T10:09:03;14.40;99.90
10583;DHT22;33679;51.218;6.786;2023-01-06T10:11:41;14.50;99.90
10583;DHT22;33679;51.218;6.786;2023-01-06T10:14:18;14.50;99.90
10583;DHT22;33679;51.218;6.786;2023-01-06T10:17:01;14.50;99.90
10583;DHT22;33679;51.218;6.786;2023-01-06T10:19:45;14.50;99.90
10583;DHT22;33679;51.218;6.786;2023-01-06T10:22:19;14.60;99.90
10583;DHT22;33679;51.218;6.786;2023-01-06T10:24:53;14.50;99.90
10583;DHT22;33679;51.218;6.786;2023-01-06T10:27:26;14.60;99.90
10583;DHT22;33679;51.218;6.786;2023-01-06T10:29:55;14.70;99.90
10583;DHT22;33679;51.218;6.786;2023-01-06T10:32:25;14.70;99.90
10583;DHT22;33679;51.218;6.786;2023-01-06T10:34:57;14.70;99.90
10583;DHT22;33679;51.218;6.786;2023-01-06T10:37:36;14.70;99.90
10583;DHT22;33679;51.218;6.786;2023-01-06T10:40:17;14.70;99.90
10583;DHT22;33679;51.218;6.786;2023-01-06T10:42:51;14.70;99.90
10583;DHT22;33679;51.218;6.786;2023-01-06T10:45:26;14.70;99.90
10583;DHT22;33679;51.218;6.786;2023-01-06T10:48:00;14.60;99.90
10583;DHT22;33679;51.218;6.786;2023-01-06T10:50:35;14.70;99.90
10583;DHT22;33679;51.218;6.786;2023-01-06T10:53:11;14.70;99.90
10583;DHT22;33679;51.218;6.786;2023-01-06T10:55:41;14.70;99.90
10583;DHT22;33679;51.218;6.786;2023-01-06T10:58:30;14.80;99.90
10583;DHT22;33679;51.218;6.786;2023-01-06T11:01:05;14.80;99.90
10583;DHT22;33679;51.218;6.786;2023-01-06T11:03:34;14.70;99.90
10583;DHT22;33679;51.218;6.786;2023-01-06T11:06:05;14.70;99.90
10583;DHT22;33679;51.218;6.786;2023-01-06T11:08:34;14.70;99.90
10583;DHT22;33679;51.218;6.786;2023-01-06T11:11:10;14.80;99.90
10583;DHT22;33679;51.218;6.786;2023-01-06T11:13:41;14.80;99.90
10583;DHT22;33679;51.218;6.786;2023-01-06T11:16:18;14.80;99.90
10583;DHT22;33679;51.218;6.786;2023-01-06T11:18:50;14.90;99.90
10583;DHT22;33679;51.218;6.786;2023-01-06T11:21:18;15.00;99.90
10583;DHT22;33679;51.218;6.786;2023-01-06T11:23:47;15.00;99.90
10583;DHT22;33679;51.218;6.786;2023-01-06T11:26:43;15.00;99.90
10583;DHT22;33679;51.218;6.786;2023-01-06T11:29:22;15.20;99.90
10583;DHT22;33679;51.218;6.786;2023-01-06T11:32:01;15.20;99.90
10583;DHT22;33679;51.218;6.786;2023-01-06T11:34:35;15.20;99.90
10583;DHT22;33679;51.218;6.786;2023-01-06T11:37:31;15.20;99.90
10583;DHT22;33679;51.218;6.786;2023-01-06T11:40:18;15.10;99.90
10583;DHT22;33679;51.218;6.786;2023-01-06T11:42:53;15.10;99.90
10583;DHT22;33679;51.218;6.786;2023-01-06T11:45:34;15.10;99.90
10583;DHT22;33679;51.218;6.786;2023-01-06T11:48:18;15.10;99.90
10583;DHT22;33679;51.218;6.786;2023-01-06T11:50:56;15.00;99.90
10583;DHT22;33679;51.218;6.786;2023-01-06T11:53:29;15.00;99.90
10583;DHT22;33679;51.218;6.786;2023-01-06T11:56:05;14.90;99.90
10583;DHT22;33679;51.218;6.786;2023-01-06T11:58:50;14.90;99.90
10583;DHT22;33679;51.218;6.786;2023-01-06T12:01:33;14.90;99.90
10583;DHT22;33679;51.218;6.786;2023-01-06T12:04:14;14.90;99.90
10583;DHT22;33679;51.218;6.786;2023-01-06T12:06:55;14.90;99.90
10583;DHT22;33679;51.218;6.786;2023-01-06T12:09:31;15.00;99.90
10583;DHT22;33679;51.218;6.786;2023-01-06T12:12:06;15.10;99.90
10583;DHT22;33679;51.218;6.786;2023-01-06T12:14:41;15.10;99.90
10583;DHT22;33679;51.218;6.786;2023-01-06T12:17:23;15.10;99.90
10583;DHT22;33679;51.218;6.786;2023-01-06T12:20:05;15.20;99.90
10583;DHT22;33679;51.218;6.786;2023-01-06T12:22:41;15.30;99.90
10583;DHT22;33679;51.218;6.786;2023-01-06T12:25:17;15.20;99.90
10583;DHT22;33679;51.218;6.786;2023-01-06T12:27:53;15.30;99.90
10583;DHT22;33679;51.218;6.786;2023-01-06T12:30:30;15.30;99.90
10583;DHT22;33679;51.218;6.786;2023-01-06T12:33:10;15.30;99.90
10583;DHT22;33679;51.218;6.786;2023-01-06T12:35:46;15.30;99.90
10583;DHT22;33679;51.218;6.786;2023-01-06T12:38:29;15.40;99.90
10583;DHT22;33679;51.218;6.786;2023-01-06T12:41:04;15.40;99.90
10583;DHT22;33679;51.218;6.786;2023-01-06T12:43:40;15.40;99.90
10583;DHT22;33679;51.218;6.786;2023-01-06T12:46:17;15.40;99.90
10583;DHT22;33679;51.218;6.786;2023-01-06T12:48:55;15.40;99.90
10583;DHT22;33679;51.218;6.786;2023-01-06T12:51:34;15.40;99.90
10583;DHT22;33679;51.218;6.786;2023-01-06T12:54:11;15.40;99.90
10583;DHT22;33679;51.218;6.786;2023-01-06T12:59:54;15.40;99.90
10583;DHT22;33679;51.218;6.786;2023-01-06T13:02:51;15.40;99.90
10583;DHT22;33679;51.218;6.786;2023-01-06T13:05:44;15.40;99.90
10583;DHT22;33679;51.218;6.786;2023-01-06T13:08:27;15.30;99.90
10583;DHT22;33679;51.218;6.786;2023-01-06T13:11:13;15.30;99.90
10583;DHT22;33679;51.218;6.786;2023-01-06T13:13:55;15.40;99.90
10583;DHT22;33679;51.218;6.786;2023-01-06T13:16:36;15.40;99.90
10583;DHT22;33679;51.218;6.786;2023-01-06T13:19:19;15.40;99.90
10583;DHT22;33679;51.218;6.786;2023-01-06T13:21:59;15.40;99.90
10583;DHT22;33679;51.218;6.786;2023-01-06T13:24:54;15.30;99.90
10583;DHT22;33679;51.218;6.786;2023-01-06T13:27:52;15.30;99.90
10583;DHT22;33679;51.218;6.786;2023-01-06T13:30:39;15.30;99.90
10583;DHT22;33679;51.218;6.786;2023-01-06T13:33:32;15.30;99.90
10583;DHT22;33679;51.218;6.786;2023-01-06T13:36:17;15.40;99.90
10583;DHT22;33679;51.218;6.786;2023-01-06T13:38:58;15.50;99.90
10583;DHT22;33679;51.218;6.786;2023-01-06T13:41:35;15.50;99.90
10583;DHT22;33679;51.218;6.786;2023-01-06T13:44:14;15.50;99.90
10583;DHT22;33679;51.218;6.786;2023-01-06T13:46:49;15.50;99.90
10583;DHT22;33679;51.218;6.786;2023-01-06T13:49:23;15.50;99.90
10583;DHT22;33679;51.218;6.786;2023-01-06T13:51:57;15.40;99.90
10583;DHT22;33679;51.218;6.786;2023-01-06T13:54:57;15.30;99.90
10583;DHT22;33679;51.218;6.786;2023-01-06T13:57:33;15.30;99.90
10583;DHT22;33679;51.218;6.786;2023-01-06T14:00:20;15.40;99.90
10583;DHT22;33679;51.218;6.786;2023-01-06T14:03:22;15.40;99.90
10583;DHT22;33679;51.218;6.786;2023-01-06T14:05:57;15.40;99.90
10583;DHT22;33679;51.218;6.786;2023-01-06T14:08:33;15.40;99.90
10583;DHT22;33679;51.218;6.786;2023-01-06T14:11:37;15.40;99.90
10583;DHT22;33679;51.218;6.786;2023-01-06T14:14:23;15.40;99.90
10583;DHT22;33679;51.218;6.786;2023-01-06T14:16:58;15.40;99.90
10583;DHT22;33679;51.218;6.786;2023-01-06T14:19:33;15.30;99.90
10583;DHT22;33679;51.218;6.786;2023-01-06T14:22:15;15.20;99.90
10583;DHT22;33679;51.218;6.786;2023-01-06T14:24:50;15.20;99.90
10583;DHT22;33679;51.218;6.786;2023-01-06T14:30:36;15.20;99.90
10583;DHT22;33679;51.218;6.786;2023-01-06T14:33:29;15.10;99.90
10583;DHT22;33679;51.218;6.786;2023-01-06T14:36:09;15.10;99.90
10583;DHT22;33679;51.218;6.786;2023-01-06T14:38:44;15.10;99.90
10583;DHT22;33679;51.218;6.786;2023-01-06T14:41:22;15.10;99.90
10583;DHT22;33679;51.218;6.786;2023-01-06T14:43:59;15.10;99.90
10583;DHT22;33679;51.218;6.786;2023-01-06T14:46:42;15.10;99.90
10583;DHT22;33679;51.218;6.786;2023-01-06T14:49:17;15.10;99.90
10583;DHT22;33679;51.218;6.786;2023-01-06T14:51:51;15.10;99.90
10583;DHT22;33679;51.218;6.786;2023-01-06T14:54:41;15.20;99.90
10583;DHT22;33679;51.218;6.786;2023-01-06T14:57:25;15.30;99.90
10583;DHT22;33679;51.218;6.786;2023-01-06T15:00:13;15.20;99.90
10583;DHT22;33679;51.218;6.786;2023-01-06T15:02:49;15.20;99.90
10583;DHT22;33679;51.218;6.786;2023-01-06T15:05:26;15.20;99.90
10583;DHT22;33679;51.218;6.786;2023-01-06T15:08:02;15.10;99.90
10583;DHT22;33679;51.218;6.786;2023-01-06T15:10:37;15.20;99.90
10583;DHT22;33679;51.218;6.786;2023-01-06T15:13:19;15.20;99.90
10583;DHT22;33679;51.218;6.786;2023-01-06T15:15:54;15.20;99.90
10583;DHT22;33679;51.218;6.786;2023-01-06T15:18:32;15.20;99.90
10583;DHT22;33679;51.218;6.786;2023-01-06T15:21:05;15.20;99.90
10583;DHT22;33679;51.218;6.786;2023-01-06T15:23:42;15.20;99.90
10583;DHT22;33679;51.218;6.786;2023-01-06T15:26:18;15.20;99.90
10583;DHT22;33679;51.218;6.786;2023-01-06T15:28:59;15.20;99.90
10583;DHT22;33679;51.218;6.786;2023-01-06T15:31:33;15.20;99.90
10583;DHT22;33679;51.218;6.786;2023-01-06T15:34:12;15.20;99.90
10583;DHT22;33679;51.218;6.786;2023-01-06T15:36:48;15.20;99.90
10583;DHT22;33679;51.218;6.786;2023-01-06T15:39:24;15.20;99.90
10583;DHT22;33679;51.218;6.786;2023-01-06T15:41:58;15.20;99.90
10583;DHT22;33679;51.218;6.786;2023-01-06T15:44:34;15.20;99.90
10583;DHT22;33679;51.218;6.786;2023-01-06T15:47:18;15.20;99.90
10583;DHT22;33679;51.218;6.786;2023-01-06T15:49:53;15.20;99.90
10583;DHT22;33679;51.218;6.786;2023-01-06T15:52:29;15.10;99.90
10583;DHT22;33679;51.218;6.786;2023-01-06T15:55:04;15.10;99.90
10583;DHT22;33679;51.218;6.786;2023-01-06T15:57:40;15.10;99.90
10583;DHT22;33679;51.218;6.786;2023-01-06T16:00:21;15.10;99.90
10583;DHT22;33679;51.218;6.786;2023-01-06T16:03:12;15.10;99.90
10583;DHT22;33679;51.218;6.786;2023-01-06T16:06:06;15.00;99.90
10583;DHT22;33679;51.218;6.786;2023-01-06T16:09:27;15.20;99.90
10583;DHT22;33679;51.218;6.786;2023-01-06T16:12:17;15.20;99.90
10583;DHT22;33679;51.218;6.786;2023-01-06T16:14:50;15.10;99.90
10583;DHT22;33679;51.218;6.786;2023-01-06T16:17:28;15.10;99.90
10583;DHT22;33679;51.218;6.786;2023-01-06T16:20:04;15.00;99.90
10583;DHT22;33679;51.218;6.786;2023-01-06T16:22:45;15.00;99.90
10583;DHT22;33679;51.218;6.786;2023-01-06T16:25:24;15.00;99.90
10583;DHT22;33679;51.218;6.786;2023-01-06T16:27:58;15.00;99.90
10583;DHT22;33679;51.218;6.786;2023-01-06T16:30:33;15.00;99.90
10583;DHT22;33679;51.218;6.786;2023-01-06T16:33:30;15.00;99.90